createdAt,value
2023-03-17T00:00:50.418Z,2.70
2023-03-17T00:03:26.571Z,2.40
2023-03-17T00:05:56.801Z,2.40
2023-03-17T00:08:33.342Z,2.20
2023-03-17T00:11:02.813Z,2.40
2023-03-17T00:13:31.284Z,1.60
2023-03-17T00:16:03.157Z,2.20
2023-03-17T00:18:33.543Z,1.90
2023-03-17T00:21:02.264Z,1.90
2023-03-17T00:23:30.773Z,1.70
2023-03-17T00:25:59.326Z,2.00
2023-03-17T00:28:28.371Z,1.50
2023-03-17T00:31:01.259Z,2.30
2023-03-17T00:33:34.710Z,1.50
2023-03-17T00:36:03.439Z,2.40
2023-03-17T00:38:31.961Z,2.00
2023-03-17T00:41:00.421Z,2.10
2023-03-17T00:43:30.664Z,2.00
2023-03-17T00:45:59.276Z,2.10
2023-03-17T00:48:30.036Z,1.70
2023-03-17T00:50:58.506Z,1.80
2023-03-17T00:53:30.316Z,1.70
2023-03-17T00:56:01.098Z,1.80
2023-03-17T00:58:34.191Z,1.70
2023-03-17T01:01:02.780Z,2.00
2023-03-17T01:03:33.186Z,1.60
2023-03-17T01:06:03.656Z,1.70
2023-03-17T01:08:32.753Z,1.40
2023-03-17T01:11:02.152Z,1.80
2023-03-17T01:13:30.659Z,1.50
2023-03-17T01:15:59.218Z,2.10
2023-03-17T01:18:27.792Z,1.50
2023-03-17T01:20:56.325Z,2.20
2023-03-17T01:23:24.728Z,1.50
2023-03-17T01:25:54.581Z,1.60
2023-03-17T01:28:23.485Z,1.40
2023-03-17T01:30:52.448Z,1.60
2023-03-17T01:33:21.048Z,1.40
2023-03-17T01:35:51.389Z,1.90
2023-03-17T01:38:20.042Z,1.60
2023-03-17T01:40:51.943Z,1.30
2023-03-17T01:43:25.198Z,1.70
2023-03-17T01:49:32.191Z,1.50
2023-03-17T01:52:11.877Z,1.80
2023-03-17T01:54:57.008Z,1.80
2023-03-17T01:57:25.536Z,1.80
2023-03-17T02:00:01.827Z,1.50
2023-03-17T02:02:36.307Z,2.10
2023-03-17T02:05:09.503Z,1.80
2023-03-17T02:07:38.663Z,2.20
2023-03-17T02:10:09.215Z,2.30
2023-03-17T02:12:42.053Z,2.00
2023-03-17T02:15:12.706Z,2.80
2023-03-17T02:17:41.682Z,1.80
2023-03-17T02:20:17.381Z,2.00
2023-03-17T02:22:50.042Z,2.00
2023-03-17T02:25:20.663Z,2.60
2023-03-17T02:27:54.246Z,2.00
2023-03-17T02:30:24.319Z,1.90
2023-03-17T02:32:52.865Z,2.10
2023-03-17T02:35:23.508Z,2.70
2023-03-17T02:37:52.113Z,1.10
2023-03-17T02:40:23.194Z,1.60
2023-03-17T02:42:52.168Z,2.20
2023-03-17T02:45:20.974Z,2.20
2023-03-17T02:47:51.722Z,2.20
2023-03-17T02:50:25.843Z,2.30
2023-03-17T02:55:22.738Z,2.30
2023-03-17T02:57:51.152Z,2.20
2023-03-17T03:00:20.161Z,2.10
2023-03-17T03:02:48.602Z,2.90
2023-03-17T03:05:17.140Z,2.20
2023-03-17T03:07:45.754Z,1.90
2023-03-17T03:10:14.700Z,3.10
2023-03-17T03:12:43.329Z,3.10
2023-03-17T03:15:11.970Z,2.60
2023-03-17T03:17:40.552Z,3.20
2023-03-17T03:20:11.658Z,3.00
2023-03-17T03:22:40.742Z,2.70
2023-03-17T03:25:09.401Z,2.80
2023-03-17T03:27:38.190Z,2.80
2023-03-17T03:30:08.372Z,2.80
2023-03-17T03:32:37.644Z,2.50
2023-03-17T03:35:06.871Z,2.50
2023-03-17T03:37:35.421Z,3.40
2023-03-17T03:40:04.769Z,3.00
2023-03-17T03:42:33.681Z,2.60
2023-03-17T03:45:02.314Z,2.90
2023-03-17T03:47:30.776Z,2.30
2023-03-17T03:49:59.240Z,2.60
2023-03-17T03:52:27.724Z,3.10
2023-03-17T03:54:56.378Z,3.10
2023-03-17T03:57:24.871Z,3.20
2023-03-17T03:59:53.308Z,3.00
2023-03-17T04:02:21.822Z,2.70
2023-03-17T04:04:50.370Z,3.20
2023-03-17T04:07:19.202Z,2.80
2023-03-17T04:09:49.497Z,3.20
2023-03-17T04:12:18.183Z,3.60
2023-03-17T04:14:47.070Z,2.70
2023-03-17T04:17:15.598Z,3.80
2023-03-17T04:19:44.084Z,3.80
2023-03-17T04:22:13.558Z,2.90
2023-03-17T04:24:42.077Z,2.70
2023-03-17T04:27:10.773Z,3.20
2023-03-17T04:29:39.188Z,3.50
2023-03-17T04:32:08.375Z,3.30
2023-03-17T04:34:37.279Z,3.30
2023-03-17T04:37:06.432Z,3.50
2023-03-17T04:39:34.926Z,3.40
2023-03-17T04:42:05.158Z,3.90
2023-03-17T04:44:33.753Z,4.00
2023-03-17T04:47:02.614Z,3.40
2023-03-17T04:49:31.508Z,3.60
2023-03-17T04:51:59.984Z,3.60
2023-03-17T04:54:28.528Z,3.20
2023-03-17T04:56:57.147Z,3.70
2023-03-17T04:59:25.551Z,4.60
2023-03-17T05:01:54.031Z,3.30
2023-03-17T05:04:31.097Z,3.40
2023-03-17T05:07:01.339Z,3.70
2023-03-17T05:09:29.761Z,3.90
2023-03-17T05:11:58.270Z,4.30
2023-03-17T05:14:26.709Z,4.00
2023-03-17T05:16:55.202Z,4.20
2023-03-17T05:19:23.770Z,5.40
2023-03-17T05:21:52.389Z,3.90
2023-03-17T05:24:21.114Z,4.20
2023-03-17T05:26:49.714Z,3.60
2023-03-17T05:29:18.218Z,6.00
2023-03-17T05:31:47.515Z,4.70
2023-03-17T05:34:16.150Z,6.00
2023-03-17T05:36:44.865Z,5.70
2023-03-17T05:39:14.586Z,4.90
2023-03-17T05:41:43.119Z,5.10
2023-03-17T05:44:12.224Z,5.40
2023-03-17T05:46:40.905Z,5.60
2023-03-17T05:49:09.331Z,5.50
2023-03-17T05:51:37.971Z,5.40
2023-03-17T05:54:07.452Z,4.10
2023-03-17T05:56:36.123Z,5.70
2023-03-17T05:59:04.720Z,5.40
2023-03-17T06:01:33.215Z,6.50
2023-03-17T06:04:01.901Z,7.20
2023-03-17T06:06:32.734Z,6.50
2023-03-17T06:09:01.371Z,7.70
2023-03-17T06:11:29.877Z,5.90
2023-03-17T06:13:58.332Z,6.70
2023-03-17T06:16:29.092Z,7.70
2023-03-17T06:18:57.539Z,7.70
2023-03-17T06:21:26.312Z,7.80
2023-03-17T06:23:54.802Z,7.60
2023-03-17T06:26:23.411Z,7.30
2023-03-17T06:28:51.975Z,7.20
2023-03-17T06:31:20.898Z,9.40
2023-03-17T06:33:49.566Z,7.80
2023-03-17T06:36:18.266Z,8.40
2023-03-17T06:38:46.782Z,7.80
2023-03-17T06:41:15.257Z,9.50
2023-03-17T06:43:46.569Z,9.90
2023-03-17T06:46:15.057Z,10.40
2023-03-17T06:48:43.823Z,7.70
2023-03-17T06:51:12.329Z,9.50
2023-03-17T06:53:41.282Z,8.00
2023-03-17T06:56:20.149Z,9.00
2023-03-17T06:58:55.889Z,10.80
2023-03-17T07:01:25.149Z,8.10
2023-03-17T07:03:53.873Z,7.90
2023-03-17T07:06:23.540Z,8.50
2023-03-17T07:08:52.409Z,7.30
2023-03-17T07:11:23.764Z,7.20
2023-03-17T07:13:52.786Z,6.90
2023-03-17T07:16:21.569Z,5.90
2023-03-17T07:18:50.807Z,5.40
2023-03-17T07:21:19.286Z,6.60
2023-03-17T07:23:47.945Z,7.40
2023-03-17T07:26:16.701Z,5.10
2023-03-17T07:28:45.139Z,6.20
2023-03-17T07:31:15.145Z,5.90
2023-03-17T07:33:43.704Z,6.30
2023-03-17T07:36:12.195Z,5.70
2023-03-17T07:38:40.893Z,6.70
2023-03-17T07:41:11.074Z,4.70
2023-03-17T07:43:39.571Z,4.60
2023-03-17T07:46:08.672Z,4.40
2023-03-17T07:48:41.054Z,3.60
2023-03-17T07:51:14.874Z,4.20
2023-03-17T07:53:45.288Z,3.80
2023-03-17T07:56:14.360Z,3.60
2023-03-17T07:58:42.826Z,3.40
2023-03-17T08:01:11.372Z,3.60
2023-03-17T08:03:41.675Z,2.80
2023-03-17T08:06:10.340Z,3.70
2023-03-17T08:08:38.867Z,3.50
2023-03-17T08:11:07.952Z,2.60
2023-03-17T08:13:36.468Z,2.70
2023-03-17T08:16:05.574Z,2.80
2023-03-17T08:18:34.182Z,2.90
2023-03-17T08:21:02.780Z,3.10
2023-03-17T08:23:33.603Z,2.60
2023-03-17T08:26:04.238Z,2.20
2023-03-17T08:28:32.970Z,2.70
2023-03-17T08:31:19.609Z,2.30
2023-03-17T08:33:52.587Z,2.60
2023-03-17T08:36:21.571Z,2.60
2023-03-17T08:38:50.772Z,1.70
2023-03-17T08:41:24.104Z,2.40
2023-03-17T08:43:53.080Z,2.70
2023-03-17T08:46:25.026Z,2.40
2023-03-17T08:48:56.540Z,2.40
2023-03-17T08:51:28.643Z,2.70
2023-03-17T08:53:57.746Z,2.30
2023-03-17T08:56:26.553Z,2.10
2023-03-17T08:58:56.007Z,2.10
2023-03-17T09:01:25.476Z,1.90
2023-03-17T09:03:55.403Z,2.10
2023-03-17T09:06:25.461Z,2.00
2023-03-17T09:08:57.069Z,2.10
2023-03-17T09:11:31.684Z,1.80
2023-03-17T09:14:00.477Z,1.90
2023-03-17T09:16:33.971Z,2.90
2023-03-17T09:19:03.884Z,2.90
2023-03-17T09:21:32.349Z,2.70
2023-03-17T09:24:02.554Z,1.90
2023-03-17T09:26:31.305Z,2.50
2023-03-17T09:28:59.808Z,2.10
2023-03-17T09:31:28.334Z,2.50
2023-03-17T09:33:56.831Z,2.20
2023-03-17T09:36:25.327Z,1.60
2023-03-17T09:38:53.855Z,2.00
2023-03-17T09:41:31.277Z,2.00
2023-03-17T09:44:18.102Z,1.70
2023-03-17T09:47:16.417Z,2.10
2023-03-17T09:50:02.275Z,2.70
2023-03-17T09:52:34.716Z,2.10
2023-03-17T09:55:08.791Z,2.30
2023-03-17T10:00:18.355Z,1.30
2023-03-17T10:02:47.523Z,1.70
2023-03-17T10:05:36.212Z,2.10
2023-03-17T10:08:30.591Z,2.00
2023-03-17T10:11:35.395Z,1.40
2023-03-17T10:14:28.815Z,1.50
2023-03-17T10:17:23.028Z,1.40
2023-03-17T10:20:00.539Z,1.10
2023-03-17T10:22:46.354Z,0.90
2023-03-17T10:25:18.281Z,1.00
2023-03-17T10:28:16.342Z,1.30
2023-03-17T10:30:44.981Z,1.20
2023-03-17T10:33:13.452Z,1.00
2023-03-17T10:35:45.088Z,0.90
2023-03-17T10:38:22.638Z,0.80
2023-03-17T10:41:06.849Z,1.30
2023-03-17T10:43:44.680Z,1.60
2023-03-17T10:46:24.558Z,1.30
2023-03-17T10:49:18.909Z,1.20
2023-03-17T10:51:47.767Z,0.70
2023-03-17T10:54:21.284Z,0.70
2023-03-17T10:56:58.893Z,1.00
2023-03-17T10:59:37.730Z,1.00
2023-03-17T11:02:20.409Z,0.90
2023-03-17T11:04:49.329Z,1.20
2023-03-17T11:07:27.248Z,1.20
2023-03-17T11:10:01.940Z,0.70
2023-03-17T11:12:41.621Z,1.00
2023-03-17T11:15:18.174Z,1.00
2023-03-17T11:17:56.056Z,0.80
2023-03-17T11:21:07.383Z,1.00
2023-03-17T11:23:58.950Z,1.60
2023-03-17T11:26:58.241Z,0.90
2023-03-17T11:29:29.679Z,1.30
2023-03-17T11:32:31.950Z,1.40
2023-03-17T11:35:40.150Z,1.00
2023-03-17T11:38:24.716Z,1.40
2023-03-17T11:41:09.157Z,1.00
2023-03-17T11:46:34.142Z,2.10
2023-03-17T11:49:37.752Z,0.90
2023-03-17T11:52:17.529Z,1.10
2023-03-17T11:54:56.629Z,1.20
2023-03-17T11:57:38.721Z,1.10
2023-03-17T12:00:36.767Z,1.60
2023-03-17T12:03:31.352Z,1.00
2023-03-17T12:06:08.122Z,1.20
2023-03-17T12:08:49.148Z,1.10
2023-03-17T12:11:26.272Z,1.10
2023-03-17T12:14:19.354Z,1.10
2023-03-17T12:17:00.849Z,1.10
2023-03-17T12:19:44.777Z,0.90
2023-03-17T12:22:35.873Z,1.00
2023-03-17T12:25:13.467Z,1.80
2023-03-17T12:28:09.671Z,1.20
2023-03-17T12:31:01.626Z,0.80
2023-03-17T12:33:52.822Z,1.10
2023-03-17T12:36:22.619Z,0.90
2023-03-17T12:39:06.898Z,0.90
2023-03-17T12:42:16.334Z,1.20
2023-03-17T12:45:25.294Z,1.30
2023-03-17T12:48:27.407Z,0.80
2023-03-17T12:51:32.411Z,1.40
2023-03-17T12:54:01.179Z,1.30
2023-03-17T12:56:33.729Z,0.90
2023-03-17T12:59:14.921Z,0.90
2023-03-17T13:01:46.082Z,1.00
2023-03-17T13:04:30.120Z,0.80
2023-03-17T13:07:13.009Z,1.10
2023-03-17T13:09:56.284Z,0.90
2023-03-17T13:13:05.939Z,0.90
2023-03-17T13:15:35.176Z,1.00
2023-03-17T13:18:18.476Z,1.10
2023-03-17T13:20:56.616Z,0.80
2023-03-17T13:23:59.313Z,1.00
2023-03-17T13:27:04.807Z,1.40
2023-03-17T13:29:33.349Z,1.40
2023-03-17T13:32:19.431Z,1.60
2023-03-17T13:34:55.819Z,1.80
2023-03-17T13:37:30.107Z,2.20
2023-03-17T13:40:20.576Z,3.30
2023-03-17T13:43:45.526Z,2.40
2023-03-17T13:46:41.960Z,1.00
2023-03-17T13:49:29.362Z,1.30
2023-03-17T13:52:22.141Z,1.30
2023-03-17T13:55:01.877Z,1.60
2023-03-17T13:57:38.456Z,0.90
2023-03-17T14:00:25.991Z,1.20
2023-03-17T14:03:08.683Z,1.60
2023-03-17T14:05:38.404Z,1.50
2023-03-17T14:08:37.387Z,1.80
2023-03-17T14:11:39.294Z,1.40
2023-03-17T14:14:36.858Z,1.20
2023-03-17T14:17:20.406Z,2.10
2023-03-17T14:20:04.521Z,2.10
2023-03-17T14:22:33.142Z,2.30
2023-03-17T14:25:02.174Z,1.50
2023-03-17T14:27:34.228Z,1.70
2023-03-17T14:30:18.243Z,1.70
2023-03-17T14:33:05.042Z,1.10
2023-03-17T14:35:42.208Z,1.70
2023-03-17T14:38:24.785Z,1.30
2023-03-17T14:41:16.210Z,1.60
2023-03-17T14:43:45.820Z,1.30
2023-03-17T14:46:34.989Z,1.40
2023-03-17T14:49:13.428Z,1.50
2023-03-17T14:51:42.318Z,1.70
2023-03-17T14:54:25.372Z,1.70
2023-03-17T14:57:02.467Z,1.50
2023-03-17T14:59:40.648Z,1.20
2023-03-17T15:02:22.438Z,1.40
2023-03-17T15:05:29.376Z,1.60
2023-03-17T15:07:58.253Z,1.30
2023-03-17T15:10:34.461Z,1.50
2023-03-17T15:13:06.405Z,1.30
2023-03-17T15:15:39.190Z,1.60
2023-03-17T15:18:14.068Z,1.30
2023-03-17T15:20:44.804Z,1.50
2023-03-17T15:23:25.023Z,1.50
2023-03-17T15:25:56.581Z,1.80
2023-03-17T15:28:31.623Z,1.80
2023-03-17T15:31:13.927Z,2.00
2023-03-17T15:33:43.054Z,1.70
2023-03-17T15:36:31.830Z,2.00
2023-03-17T15:39:03.489Z,2.00
2023-03-17T15:41:32.180Z,2.20
2023-03-17T15:44:00.630Z,2.10
2023-03-17T15:46:32.193Z,1.40
2023-03-17T15:49:01.088Z,1.60
2023-03-17T15:51:29.646Z,1.40
2023-03-17T15:53:58.048Z,1.80
2023-03-17T15:56:27.170Z,1.30
2023-03-17T15:58:56.140Z,1.70
2023-03-17T16:01:27.638Z,1.40
2023-03-17T16:03:56.428Z,1.90
2023-03-17T16:06:24.938Z,2.10
2023-03-17T16:08:53.436Z,2.00
2023-03-17T16:11:30.020Z,3.20
2023-03-17T16:13:59.854Z,2.40
2023-03-17T16:16:37.524Z,2.70
2023-03-17T16:19:10.442Z,2.60
2023-03-17T16:21:39.019Z,2.80
2023-03-17T16:24:21.822Z,2.70
2023-03-17T16:26:51.193Z,3.20
2023-03-17T16:29:21.618Z,3.90
2023-03-17T16:31:51.333Z,3.80
2023-03-17T16:34:24.023Z,4.40
2023-03-17T16:36:54.343Z,5.50
2023-03-17T16:39:24.009Z,4.60
2023-03-17T16:41:53.613Z,5.30
2023-03-17T16:44:22.376Z,4.70
2023-03-17T16:46:50.868Z,5.40
2023-03-17T16:49:22.671Z,5.50
2023-03-17T16:51:51.291Z,5.50
2023-03-17T16:54:19.728Z,6.30
2023-03-17T16:56:48.269Z,7.00
2023-03-17T16:59:21.650Z,5.90
2023-03-17T17:01:50.205Z,5.90
2023-03-17T17:04:18.915Z,4.80
2023-03-17T17:06:47.311Z,4.50
2023-03-17T17:09:15.927Z,4.30
2023-03-17T17:11:44.384Z,4.30
2023-03-17T17:14:12.805Z,3.40
2023-03-17T17:16:41.366Z,4.10
2023-03-17T17:19:16.733Z,4.20
2023-03-17T17:21:45.504Z,3.70
2023-03-17T17:24:14.269Z,4.20
2023-03-17T17:26:42.674Z,4.10
2023-03-17T17:29:11.234Z,3.70
2023-03-17T17:31:39.862Z,3.90
2023-03-17T17:34:08.335Z,3.80
2023-03-17T17:36:36.758Z,3.80
2023-03-17T17:39:05.348Z,3.70
2023-03-17T17:41:34.558Z,3.40
2023-03-17T17:44:03.390Z,3.20
2023-03-17T17:46:32.802Z,3.60
2023-03-17T17:49:01.291Z,3.90
2023-03-17T17:51:29.970Z,3.40
2023-03-17T17:53:58.733Z,4.90
2023-03-17T17:56:27.206Z,4.00
2023-03-17T17:58:55.669Z,6.40
2023-03-17T18:01:24.167Z,6.50
2023-03-17T18:03:52.943Z,5.20
2023-03-17T18:06:21.429Z,5.40
2023-03-17T18:08:50.374Z,5.50
2023-03-17T18:11:19.376Z,5.30
2023-03-17T18:13:48.148Z,5.20
2023-03-17T18:16:18.432Z,6.90
2023-03-17T18:18:47.335Z,6.00
2023-03-17T18:21:16.213Z,5.30
2023-03-17T18:23:47.466Z,5.40
2023-03-17T18:26:17.993Z,5.10
2023-03-17T18:28:47.970Z,5.20
2023-03-17T18:31:34.135Z,4.50
2023-03-17T18:34:43.545Z,5.40
2023-03-17T18:37:18.751Z,5.10
2023-03-17T18:39:58.621Z,4.80
2023-03-17T18:42:36.490Z,5.00
2023-03-17T18:45:08.480Z,4.70
2023-03-17T18:47:38.888Z,5.10
2023-03-17T18:50:09.436Z,5.00
2023-03-17T18:52:41.211Z,5.40
2023-03-17T18:55:11.696Z,5.10
2023-03-17T18:57:43.112Z,5.10
2023-03-17T19:00:16.455Z,4.90
2023-03-17T19:02:45.836Z,4.90
2023-03-17T19:05:15.409Z,5.40
2023-03-17T19:07:43.912Z,4.80
2023-03-17T19:10:14.331Z,4.20
2023-03-17T19:12:44.708Z,4.40
2023-03-17T19:15:14.674Z,4.20
2023-03-17T19:17:43.186Z,5.10
2023-03-17T19:20:13.296Z,4.00
2023-03-17T19:22:41.848Z,4.30
2023-03-17T19:25:10.808Z,3.60
2023-03-17T19:27:39.760Z,3.90
2023-03-17T19:30:09.214Z,3.90
2023-03-17T19:32:37.853Z,4.60
2023-03-17T19:35:07.656Z,4.40
2023-03-17T19:37:38.190Z,4.00
2023-03-17T19:40:10.398Z,4.80
2023-03-17T19:42:38.829Z,4.90
2023-03-17T19:45:08.159Z,5.00
2023-03-17T19:47:36.990Z,4.20
2023-03-17T19:50:05.965Z,4.40
2023-03-17T19:52:34.523Z,3.80
2023-03-17T19:55:04.873Z,4.60
2023-03-17T19:57:34.538Z,4.40
2023-03-17T20:00:03.982Z,4.70
2023-03-17T20:02:38.255Z,4.70
2023-03-17T20:05:07.394Z,4.60
2023-03-17T20:07:36.625Z,4.90
2023-03-17T20:10:07.393Z,4.90
2023-03-17T20:12:38.272Z,4.40
2023-03-17T20:15:08.799Z,5.10
2023-03-17T20:17:37.534Z,4.40
2023-03-17T20:20:09.510Z,4.80
2023-03-17T20:22:40.463Z,4.40
2023-03-17T20:25:10.454Z,4.80
2023-03-17T20:27:39.655Z,4.30
2023-03-17T20:30:09.555Z,5.30
2023-03-17T20:32:39.360Z,4.80
2023-03-17T20:35:08.831Z,4.30
2023-03-17T20:37:37.496Z,4.40
2023-03-17T20:40:08.904Z,4.40
2023-03-17T20:42:37.593Z,4.10
2023-03-17T20:45:07.648Z,4.00
2023-03-17T20:47:36.612Z,3.30
2023-03-17T20:50:06.524Z,3.40
2023-03-17T20:52:37.036Z,3.20
2023-03-17T20:55:08.573Z,4.00
2023-03-17T20:57:37.085Z,3.60
2023-03-17T21:00:06.629Z,3.20
2023-03-17T21:02:35.149Z,3.90
2023-03-17T21:05:04.261Z,4.20
2023-03-17T21:07:32.740Z,4.60
2023-03-17T21:10:02.210Z,3.80
2023-03-17T21:12:31.836Z,3.60
2023-03-17T21:15:00.899Z,3.90
2023-03-17T21:17:29.452Z,2.80
2023-03-17T21:19:58.581Z,3.20
2023-03-17T21:22:27.131Z,3.70
2023-03-17T21:24:55.680Z,4.60
2023-03-17T21:27:24.126Z,3.90
2023-03-17T21:29:52.766Z,3.70
2023-03-17T21:32:21.319Z,3.90
2023-03-17T21:34:49.754Z,4.40
2023-03-17T21:37:18.910Z,4.50
2023-03-17T21:39:47.380Z,4.80
2023-03-17T21:42:15.909Z,5.00
2023-03-17T21:44:45.877Z,5.60
2023-03-17T21:47:15.414Z,6.90
2023-03-17T21:49:43.832Z,6.60
2023-03-17T21:52:12.898Z,7.10
2023-03-17T21:54:41.427Z,6.50
2023-03-17T21:57:12.037Z,7.80
2023-03-17T21:59:40.950Z,7.00
2023-03-17T22:02:12.768Z,7.30
2023-03-17T22:04:41.768Z,6.80
2023-03-17T22:07:13.389Z,5.90
2023-03-17T22:09:41.997Z,6.20
2023-03-17T22:12:11.945Z,5.90
2023-03-17T22:14:40.610Z,7.30
2023-03-17T22:17:09.593Z,7.60
2023-03-17T22:19:38.166Z,7.30
2023-03-17T22:22:06.843Z,7.50
2023-03-17T22:24:35.231Z,7.70
2023-03-17T22:27:04.900Z,6.90
2023-03-17T22:29:33.379Z,6.40
2023-03-17T22:32:02.504Z,7.40
2023-03-17T22:34:30.998Z,7.20
2023-03-17T22:36:59.671Z,7.20
2023-03-17T22:39:28.534Z,7.10
2023-03-17T22:41:57.330Z,7.90
2023-03-17T22:44:25.801Z,5.70
2023-03-17T22:46:54.332Z,6.20
2023-03-17T22:49:23.862Z,8.30
2023-03-17T22:51:52.451Z,7.10
2023-03-17T22:54:22.121Z,5.70
2023-03-17T22:56:50.656Z,7.10
2023-03-17T22:59:19.076Z,7.00
2023-03-17T23:01:47.709Z,7.60
2023-03-17T23:04:16.840Z,7.90
2023-03-17T23:06:45.604Z,7.20
2023-03-17T23:09:14.569Z,7.20
2023-03-17T23:11:43.014Z,7.10
2023-03-17T23:14:13.270Z,7.70
2023-03-17T23:16:41.897Z,8.00
2023-03-17T23:19:10.711Z,7.90
2023-03-17T23:21:40.143Z,7.30
2023-03-17T23:24:09.063Z,7.60
2023-03-17T23:26:37.938Z,6.30
2023-03-17T23:29:08.668Z,6.20
2023-03-17T23:31:38.383Z,5.70
2023-03-17T23:34:08.858Z,5.70
2023-03-17T23:36:40.778Z,6.90
2023-03-17T23:39:09.982Z,6.60
2023-03-17T23:41:38.592Z,7.40
2023-03-17T23:44:07.573Z,7.20
2023-03-17T23:46:36.709Z,8.00
2023-03-17T23:49:07.361Z,7.20
2023-03-17T23:51:35.878Z,6.40
2023-03-17T23:54:05.905Z,6.10
2023-03-17T23:56:35.697Z,7.10
2023-03-17T23:59:04.267Z,6.90
